Main page
METAR-TAF:

Airports :

Alpine, Texas, United States

Alpine-Casparis Municipal Airport

latitude: 30-23-03N, longitude: 103-41-00W, elevation: 1376 m

Current weather observation

The report was made 16 minutes ago, at 21:15 UTC
Wind 8 kt from the East
Temperature 24°C
Humidity 61%
Pressure 1023 hPa
Visibility: 16.1 km
Broken clouds at a height of 3100 ft
Broken clouds at a height of 4300 ft
Broken clouds at a height of 6500 ft

METAR: KE38 292115Z AUTO 08008KT 10SM BKN031 BKN043 BKN065 24/16 A3021 RMK AO2 LTG DSNT E AND S T02400156

Time: 16:31 (21:31 UTC)


TAF: missing

METAR-TAF

Weather observations and forecasts of more than 4000 airports (METAR and TAF reports).

The available stations are represented by yellow and red dots on the map.

Hover mouse over dot to see the name of the station.

Then click to see weather observations and forecasts.

To change the map : click on the green buttons with a black cross to zoom in, on the green button with a dash to zoom out, or on the green arrows for adjacent maps.


METAR-TAF: